Eastleigh, United Kingdom
Current Conditions -  °F | °C
As of 8:50 AM on Thursday 23 Oct 2014 (Local Time) from EGHI Reporting Station
Scattered Clouds Scattered Clouds  
Wind Chill: 55°   Ceiling: Unl
Heat Index: 55°   Visibility: 6mi
Dew Point: 48°   Wind: 8mph
Humidity: 77%   Direction: 230°SW
Pressure: 30.15"   Gusts: NA
Location:  50.99°N, 1.37°W
Report Text: EGHI 230750Z 23007KT 200V270 9999 FEW022 SCT040 13/09 Q1021
Loading
Personal Weather Stations






























Interactive Weather Map
Tropical Storm Tracking
New forecast layout! Learn more

10-Day Weather Forecast

Advertisements
Track Severe Weather on mobile